Terminal Aerodrome Forecast
Issued by NWS

Home | Current Version | Previous Version | Text Only | Print | Product List | Glossary On
Versions: 1 2 3 4 5 6 7 8 9 10 11 12 13 14 15 16 17
259
FTUS43 KGRB 241134
TAFATW
TAF
KATW 241134Z 2412/2512 07007KT P6SM SCT030 SCT100
     FM241300 11009KT P6SM SCT030 BKN080
     FM241900 10008KT P6SM FEW035 SCT100
     FM250600 12006KT P6SM BKN035 OVC060=

USA.gov is the U.S. government's official web portal to all federal, state and local government web resources and services.